createdAt,value
2023-03-01T00:00:24.023Z,99537.88
2023-03-01T00:05:25.987Z,99532.91
2023-03-01T00:10:27.930Z,99538.13
2023-03-01T00:15:29.951Z,99529.78
2023-03-01T00:20:32.024Z,99537.63
2023-03-01T00:25:33.874Z,99536.84
2023-03-01T00:30:35.871Z,99541.19
2023-03-01T00:35:38.505Z,99531.88
2023-03-01T00:40:40.390Z,99521.81
2023-03-01T00:45:42.458Z,99517.66
2023-03-01T00:50:44.426Z,99502.34
2023-03-01T00:55:46.332Z,99504.84
2023-03-01T01:00:48.169Z,99504.97
2023-03-01T01:05:51.002Z,99500.06
2023-03-01T01:10:52.771Z,99505.22
2023-03-01T01:15:54.640Z,99503.63
2023-03-01T01:20:57.803Z,99502.03
2023-03-01T01:26:14.962Z,99489.34
2023-03-01T01:31:17.195Z,99484.31
2023-03-01T01:36:19.055Z,99485.22
2023-03-01T01:41:22.597Z,99469.91
2023-03-01T01:46:34.714Z,99471.69
2023-03-01T01:51:40.420Z,99464.09
2023-03-01T01:56:47.518Z,99476.09
2023-03-01T02:01:49.369Z,99489.78
2023-03-01T02:07:19.458Z,99475.38
2023-03-01T02:12:25.609Z,99476.28
2023-03-01T02:17:27.548Z,99469.56
2023-03-01T02:22:33.100Z,99461.22
2023-03-01T02:27:44.848Z,99452.06
2023-03-01T02:32:47.396Z,99438.66
2023-03-01T02:37:49.618Z,99436.25
2023-03-01T02:42:56.874Z,99440.50
2023-03-01T02:47:59.138Z,99442.94
2023-03-01T02:53:41.242Z,99438.78
2023-03-01T02:58:52.073Z,99433.94
2023-03-01T03:03:54.920Z,99423.88
2023-03-01T03:08:56.926Z,99417.13
2023-03-01T03:13:58.943Z,99414.69
2023-03-01T03:19:06.318Z,99416.41
2023-03-01T03:24:08.148Z,99416.53
2023-03-01T03:29:09.934Z,99405.53
2023-03-01T03:34:19.314Z,99407.31
2023-03-01T03:39:24.846Z,99411.63
2023-03-01T03:44:27.967Z,99401.44
2023-03-01T03:49:29.856Z,99400.59
2023-03-01T03:54:31.669Z,99404.00
2023-03-01T03:59:33.580Z,99408.97
2023-03-01T04:04:35.845Z,99415.06
2023-03-01T04:09:37.732Z,99407.53
2023-03-01T04:14:39.748Z,99410.03
2023-03-01T04:19:41.596Z,99405.75
2023-03-01T04:24:43.421Z,99408.50
2023-03-01T04:29:45.263Z,99397.53
2023-03-01T04:34:47.339Z,99407.66
2023-03-01T04:39:49.201Z,99402.63
2023-03-01T04:44:52.352Z,99406.06
2023-03-01T04:49:54.119Z,99417.19
2023-03-01T04:54:55.849Z,99417.25
2023-03-01T05:00:00.622Z,99405.41
2023-03-01T05:05:02.542Z,99406.31
2023-03-01T05:10:04.711Z,99403.06
2023-03-01T05:15:08.074Z,99405.66
2023-03-01T05:20:11.290Z,99400.94
2023-03-01T05:25:15.076Z,99387.50
2023-03-01T05:30:18.313Z,99394.25
2023-03-01T05:35:20.286Z,99389.09
2023-03-01T05:40:25.258Z,99384.81
2023-03-01T05:45:28.404Z,99383.09
2023-03-01T05:50:33.547Z,99381.44
2023-03-01T05:55:36.531Z,99382.28
2023-03-01T06:00:38.527Z,99391.56
2023-03-01T06:05:41.830Z,99394.94
2023-03-01T06:10:43.730Z,99389.75
2023-03-01T06:15:45.577Z,99394.78
2023-03-01T06:20:56.962Z,99391.34
2023-03-01T06:25:58.911Z,99404.59
2023-03-01T06:31:00.784Z,99406.06
2023-03-01T06:36:02.813Z,99401.44
2023-03-01T06:41:04.916Z,99406.22
2023-03-01T06:46:08.067Z,99411.00
2023-03-01T06:51:10.033Z,99417.41
2023-03-01T06:56:11.927Z,99414.47
2023-03-01T07:01:13.941Z,99419.19
2023-03-01T07:06:16.052Z,99415.63
2023-03-01T07:11:17.979Z,99406.88
2023-03-01T07:16:21.478Z,99400.50
2023-03-01T07:21:23.288Z,99399.28
2023-03-01T07:26:51.791Z,99397.25
2023-03-01T07:31:53.622Z,99391.66
2023-03-01T07:36:58.468Z,99397.19
2023-03-01T07:42:00.478Z,99397.56
2023-03-01T07:47:02.443Z,99393.78
2023-03-01T07:52:04.613Z,99384.28
2023-03-01T07:57:06.538Z,99378.13
2023-03-01T08:02:10.416Z,99382.28
2023-03-01T08:07:12.312Z,99373.31
2023-03-01T08:12:17.339Z,99369.56
2023-03-01T08:17:19.227Z,99358.84
2023-03-01T08:22:21.127Z,99350.84
2023-03-01T08:27:24.029Z,99351.53
2023-03-01T08:32:26.932Z,99352.88
2023-03-01T08:37:32.077Z,99357.41
2023-03-01T08:42:34.219Z,99356.22
2023-03-01T08:47:36.259Z,99356.06
2023-03-01T08:52:38.140Z,99359.44
2023-03-01T08:57:39.959Z,99344.72
2023-03-01T09:02:41.754Z,99337.56
2023-03-01T09:07:43.868Z,99339.00
2023-03-01T09:12:45.791Z,99341.09
2023-03-01T09:17:47.955Z,99340.28
2023-03-01T09:22:49.839Z,99336.06
2023-03-01T09:27:55.565Z,99326.97
2023-03-01T09:32:57.958Z,99316.66
2023-03-01T09:37:59.902Z,99325.00
2023-03-01T09:43:19.857Z,99321.41
2023-03-01T09:48:27.125Z,99323.66
2023-03-01T09:53:36.258Z,99324.81
2023-03-01T09:59:05.812Z,99324.19
2023-03-01T10:04:43.065Z,99325.38
2023-03-01T10:09:46.595Z,99315.56
2023-03-01T10:15:00.406Z,99321.13
2023-03-01T10:20:20.408Z,99319.72
2023-03-01T10:25:54.794Z,99317.00
2023-03-01T10:30:59.976Z,99319.56
2023-03-01T10:36:03.366Z,99313.22
2023-03-01T10:41:08.645Z,99317.91
2023-03-01T10:46:25.321Z,99302.06
2023-03-01T10:51:27.321Z,99286.94
2023-03-01T10:56:32.558Z,99289.09
2023-03-01T11:01:37.115Z,99280.31
2023-03-01T11:06:41.397Z,99289.16
2023-03-01T11:11:43.344Z,99279.28
2023-03-01T11:16:48.732Z,99266.97
2023-03-01T11:22:02.733Z,99269.19
2023-03-01T11:27:16.695Z,99268.66
2023-03-01T11:32:21.073Z,99258.53
2023-03-01T11:37:40.986Z,99265.59
2023-03-01T11:43:11.169Z,99269.53
2023-03-01T11:48:47.047Z,99275.22
2023-03-01T11:53:54.990Z,99267.97
2023-03-01T11:59:17.730Z,99259.94
2023-03-01T12:04:22.512Z,99256.91
2023-03-01T12:09:55.288Z,99251.31
2023-03-01T12:15:05.990Z,99243.44
2023-03-01T12:20:15.591Z,99235.56
2023-03-01T12:25:40.813Z,99228.50
2023-03-01T12:31:10.975Z,99220.72
2023-03-01T12:36:21.726Z,99213.09
2023-03-01T12:41:32.657Z,99195.78
2023-03-01T12:46:56.044Z,99191.56
2023-03-01T12:52:10.578Z,99198.06
2023-03-01T12:57:18.128Z,99201.38
2023-03-01T13:02:49.494Z,99183.59
2023-03-01T13:08:42.754Z,99188.91
2023-03-01T13:13:44.752Z,99184.69
2023-03-01T13:18:46.841Z,99178.84
2023-03-01T13:23:51.520Z,99184.88
2023-03-01T13:28:58.297Z,99195.97
2023-03-01T13:34:01.934Z,99195.06
2023-03-01T13:39:41.328Z,99188.38
2023-03-01T13:44:44.650Z,99186.72
2023-03-01T13:50:05.092Z,99171.34
2023-03-01T13:55:15.374Z,99181.41
2023-03-01T14:00:35.629Z,99177.00
2023-03-01T14:05:38.033Z,99173.53
2023-03-01T14:11:08.554Z,99169.94
2023-03-01T14:16:35.961Z,99160.50
2023-03-01T14:21:37.953Z,99158.56
2023-03-01T14:26:39.922Z,99151.50
2023-03-01T14:31:52.457Z,99137.75
2023-03-01T14:36:55.789Z,99144.34
2023-03-01T14:42:10.637Z,99149.38
2023-03-01T14:47:34.458Z,99141.56
2023-03-01T14:52:40.381Z,99128.75
2023-03-01T14:57:45.570Z,99128.75
2023-03-01T15:02:51.151Z,99126.28
2023-03-01T15:07:54.156Z,99126.38
2023-03-01T15:12:56.373Z,99125.56
2023-03-01T15:18:01.451Z,99123.09
2023-03-01T15:23:04.458Z,99119.88
2023-03-01T15:28:06.363Z,99125.13
2023-03-01T15:33:30.644Z,99126.13
2023-03-01T15:38:52.940Z,99119.44
2023-03-01T15:43:57.039Z,99118.72
2023-03-01T15:49:26.191Z,99112.88
2023-03-01T15:54:29.034Z,99114.81
2023-03-01T15:59:30.821Z,99107.28
2023-03-01T16:04:32.699Z,99102.47
2023-03-01T16:09:34.573Z,99106.13
2023-03-01T16:14:36.400Z,99105.59
2023-03-01T16:19:39.600Z,99105.78
2023-03-01T16:24:42.273Z,99112.13
2023-03-01T16:29:44.334Z,99119.25
2023-03-01T16:34:48.760Z,99120.66
2023-03-01T16:39:52.188Z,99121.31
2023-03-01T16:44:57.425Z,99124.50
2023-03-01T16:49:59.397Z,99117.56
2023-03-01T16:55:01.493Z,99115.63
2023-03-01T17:00:08.475Z,99121.31
2023-03-01T17:05:13.348Z,99117.53
2023-03-01T17:10:15.352Z,99126.50
2023-03-01T17:15:17.242Z,99132.88
2023-03-01T17:20:19.108Z,99120.44
2023-03-01T17:25:20.993Z,99136.91
2023-03-01T17:30:22.877Z,99141.44
2023-03-01T17:35:24.744Z,99144.28
2023-03-01T17:40:26.669Z,99145.34
2023-03-01T17:45:28.497Z,99142.97
2023-03-01T17:50:30.365Z,99138.03
2023-03-01T17:55:32.127Z,99136.56
2023-03-01T18:00:34.879Z,99134.34
2023-03-01T18:05:40.239Z,99137.88
2023-03-01T18:10:42.089Z,99141.53
2023-03-01T18:15:43.847Z,99148.47
2023-03-01T18:20:45.644Z,99147.81
2023-03-01T18:25:47.386Z,99142.78
2023-03-01T18:30:49.402Z,99131.06
2023-03-01T18:35:51.478Z,99132.81
2023-03-01T18:40:53.493Z,99129.50
2023-03-01T18:45:59.468Z,99126.13
2023-03-01T18:51:15.320Z,99130.50
2023-03-01T18:56:17.436Z,99128.09
2023-03-01T19:01:25.441Z,99117.22
2023-03-01T19:06:34.506Z,99119.13
2023-03-01T19:11:36.655Z,99115.00
2023-03-01T19:16:38.511Z,99120.19
2023-03-01T19:21:40.460Z,99131.41
2023-03-01T19:26:42.699Z,99122.94
2023-03-01T19:31:44.568Z,99127.31
2023-03-01T19:36:48.589Z,99118.97
2023-03-01T19:41:50.531Z,99125.06
2023-03-01T19:46:59.904Z,99123.44
2023-03-01T19:52:01.792Z,99120.13
2023-03-01T19:57:03.708Z,99117.75
2023-03-01T20:02:05.535Z,99121.28
2023-03-01T20:07:07.435Z,99127.38
2023-03-01T20:12:09.222Z,99124.09
2023-03-01T20:17:11.106Z,99124.16
2023-03-01T20:22:15.070Z,99120.97
2023-03-01T20:27:16.910Z,99123.69
2023-03-01T20:32:18.888Z,99122.94
2023-03-01T20:37:22.522Z,99111.88
2023-03-01T20:42:24.407Z,99107.69
2023-03-01T20:47:26.324Z,99100.00
2023-03-01T20:52:32.333Z,99098.28
2023-03-01T20:57:38.551Z,99101.66
2023-03-01T21:02:40.410Z,99101.81
2023-03-01T21:07:43.025Z,99096.81
2023-03-01T21:12:44.832Z,99096.97
2023-03-01T21:17:46.591Z,99097.88
2023-03-01T21:22:48.460Z,99089.53
2023-03-01T21:27:50.325Z,99088.88
2023-03-01T21:32:52.148Z,99093.16
2023-03-01T21:37:54.104Z,99088.22
2023-03-01T21:42:55.892Z,99090.09
2023-03-01T21:47:57.748Z,99085.16
2023-03-01T21:52:59.872Z,99076.69
2023-03-01T21:58:01.737Z,99086.91
2023-03-01T22:03:03.659Z,99075.94
2023-03-01T22:08:06.019Z,99061.59
2023-03-01T22:13:08.003Z,99060.94
2023-03-01T22:18:11.457Z,99049.22
2023-03-01T22:23:13.325Z,99045.09
2023-03-01T22:28:15.180Z,99052.94
2023-03-01T22:33:17.010Z,99060.75
2023-03-01T22:38:18.838Z,99051.53
2023-03-01T22:43:22.147Z,99061.91
2023-03-01T22:48:26.096Z,99061.06
2023-03-01T22:53:29.295Z,99063.72
2023-03-01T22:58:31.517Z,99056.13
2023-03-01T23:03:34.498Z,99052.66
2023-03-01T23:08:36.819Z,99045.16
2023-03-01T23:13:39.467Z,99041.88
2023-03-01T23:18:41.593Z,99049.59
2023-03-01T23:23:44.106Z,99053.06
2023-03-01T23:28:47.415Z,99049.78
2023-03-01T23:33:49.738Z,99049.84
2023-03-01T23:38:57.698Z,99054.13
2023-03-01T23:44:01.324Z,99051.66
2023-03-01T23:49:04.752Z,99044.22
2023-03-01T23:54:07.419Z,99048.69
2023-03-01T23:59:17.296Z,99046.19
